createdAt,value
2024-02-23T00:02:50.286Z,67.40
2024-02-23T00:07:51.837Z,68.35
2024-02-23T00:12:53.375Z,68.36
2024-02-23T00:17:54.921Z,67.69
2024-02-23T00:22:56.524Z,67.73
2024-02-23T00:27:58.017Z,68.05
2024-02-23T00:32:59.646Z,69.38
2024-02-23T00:38:01.183Z,66.52
2024-02-23T00:43:04.138Z,65.67
2024-02-23T00:48:05.910Z,66.72
2024-02-23T00:53:07.460Z,66.95
2024-02-23T00:58:09.006Z,65.60
2024-02-23T01:03:10.539Z,64.48
2024-02-23T01:08:12.119Z,67.92
2024-02-23T01:13:13.653Z,67.76
2024-02-23T01:18:15.393Z,67.30
2024-02-23T01:23:16.975Z,67.75
2024-02-23T01:28:18.522Z,64.85
2024-02-23T01:33:20.114Z,64.44
2024-02-23T01:38:23.054Z,65.95
2024-02-23T01:43:24.591Z,63.80
2024-02-23T01:48:26.260Z,61.34
2024-02-23T01:53:27.929Z,59.87
2024-02-23T01:58:30.883Z,60.44
2024-02-23T02:03:32.830Z,60.33
2024-02-23T02:08:37.482Z,62.07
2024-02-23T02:13:39.008Z,61.58
2024-02-23T02:18:40.516Z,61.71
2024-02-23T02:23:42.230Z,60.04
2024-02-23T02:28:43.730Z,64.30
2024-02-23T02:33:45.252Z,63.73
2024-02-23T02:38:46.765Z,61.54
2024-02-23T02:43:48.308Z,59.91
2024-02-23T02:48:49.874Z,58.97
2024-02-23T02:53:51.430Z,57.75
2024-02-23T02:58:52.941Z,58.23
2024-02-23T03:03:54.500Z,57.78
2024-02-23T03:08:56.009Z,58.01
2024-02-23T03:13:57.541Z,61.49
2024-02-23T03:18:59.277Z,61.00
2024-02-23T03:24:01.258Z,60.17
2024-02-23T03:29:02.886Z,58.45
2024-02-23T03:34:04.578Z,58.98
2024-02-23T03:39:06.746Z,58.29
2024-02-23T03:44:09.076Z,57.52
2024-02-23T03:49:10.708Z,57.58
2024-02-23T03:54:12.222Z,56.89
2024-02-23T03:59:13.775Z,57.17
2024-02-23T04:04:15.313Z,57.18
2024-02-23T04:09:16.855Z,57.33
2024-02-23T04:14:18.426Z,55.90
2024-02-23T04:19:19.985Z,55.12
2024-02-23T04:24:23.984Z,53.32
2024-02-23T04:29:26.810Z,54.03
2024-02-23T04:34:31.882Z,53.18
2024-02-23T04:39:33.382Z,54.11
2024-02-23T04:44:34.968Z,55.89
2024-02-23T04:49:36.553Z,55.73
2024-02-23T04:54:38.073Z,56.71
2024-02-23T04:59:39.594Z,53.68
2024-02-23T05:04:41.149Z,53.31
2024-02-23T05:09:42.652Z,52.71
2024-02-23T05:14:44.163Z,55.13
2024-02-23T05:19:47.581Z,57.34
2024-02-23T05:24:49.218Z,56.47
2024-02-23T05:29:50.817Z,55.91
2024-02-23T05:34:54.133Z,55.72
2024-02-23T05:39:55.862Z,56.15
2024-02-23T05:44:58.346Z,56.61
2024-02-23T05:49:59.850Z,56.59
2024-02-23T05:55:01.536Z,54.25
2024-02-23T06:00:03.163Z,55.51
2024-02-23T06:05:06.156Z,55.71
2024-02-23T06:10:08.299Z,57.65
2024-02-23T06:15:10.402Z,57.95
2024-02-23T06:20:12.227Z,57.95
2024-02-23T06:25:13.783Z,57.46
2024-02-23T06:30:15.323Z,56.67
2024-02-23T06:35:16.836Z,56.00
2024-02-23T06:40:19.362Z,55.33
2024-02-23T06:45:26.670Z,58.26
2024-02-23T06:50:28.219Z,58.14
2024-02-23T06:55:29.823Z,59.40
2024-02-23T07:00:31.834Z,58.85
2024-02-23T07:05:33.609Z,58.25
2024-02-23T07:10:35.269Z,58.38
2024-02-23T07:15:37.367Z,57.51
2024-02-23T07:20:39.486Z,57.82
2024-02-23T07:25:42.109Z,57.14
2024-02-23T07:30:44.676Z,56.74
2024-02-23T07:35:46.176Z,56.71
2024-02-23T07:40:47.689Z,56.39
2024-02-23T07:45:49.189Z,56.13
2024-02-23T07:50:50.699Z,55.66
2024-02-23T07:55:52.248Z,56.48
2024-02-23T08:00:54.393Z,56.09
2024-02-23T08:05:55.931Z,56.75
2024-02-23T08:10:57.552Z,56.52
2024-02-23T08:15:59.334Z,56.29
2024-02-23T08:21:03.277Z,56.05
2024-02-23T08:26:04.819Z,56.07
2024-02-23T08:31:06.381Z,55.63
2024-02-23T08:36:08.091Z,56.11
2024-02-23T08:41:10.001Z,55.82
2024-02-23T08:46:11.658Z,55.86
2024-02-23T08:51:13.213Z,55.31
2024-02-23T08:56:17.111Z,54.87
2024-02-23T09:01:18.663Z,55.38
2024-02-23T09:06:20.944Z,53.92
2024-02-23T09:11:23.455Z,55.27
2024-02-23T09:16:25.738Z,54.74
2024-02-23T09:21:27.269Z,54.21
2024-02-23T09:26:28.893Z,54.03
2024-02-23T09:31:30.880Z,53.31
2024-02-23T09:36:32.403Z,53.53
2024-02-23T09:41:35.416Z,52.94
2024-02-23T09:46:40.006Z,53.55
2024-02-23T09:51:41.498Z,53.58
2024-02-23T09:56:43.070Z,53.39
2024-02-23T10:01:44.684Z,53.01
2024-02-23T10:06:46.309Z,52.36
2024-02-23T10:11:53.166Z,52.58
2024-02-23T10:16:56.236Z,52.21
2024-02-23T10:21:57.981Z,53.57
2024-02-23T10:26:59.576Z,52.80
2024-02-23T10:32:01.777Z,52.19
2024-02-23T10:37:03.532Z,51.62
2024-02-23T10:42:06.224Z,51.35
2024-02-23T10:47:07.750Z,50.69
2024-02-23T10:52:10.301Z,50.53
2024-02-23T10:57:11.831Z,49.08
2024-02-23T11:02:17.277Z,49.14
2024-02-23T11:07:22.248Z,49.58
2024-02-23T11:12:25.699Z,48.93
2024-02-23T11:17:27.948Z,50.21
2024-02-23T11:22:38.187Z,49.83
2024-02-23T11:27:43.397Z,51.17
2024-02-23T11:32:47.449Z,49.90
2024-02-23T11:37:50.088Z,49.71
2024-02-23T11:42:51.671Z,50.76
2024-02-23T11:47:53.451Z,51.17
2024-02-23T11:52:55.508Z,51.08
2024-02-23T11:58:01.968Z,50.30
2024-02-23T12:03:10.973Z,48.99
2024-02-23T12:08:12.627Z,49.41
2024-02-23T12:13:14.194Z,49.75
2024-02-23T12:18:15.790Z,49.63
2024-02-23T12:23:17.959Z,51.37
2024-02-23T12:28:19.740Z,51.48
2024-02-23T12:33:21.359Z,50.61
2024-02-23T12:38:23.426Z,50.60
2024-02-23T12:43:31.516Z,50.72
2024-02-23T12:48:33.062Z,52.99
2024-02-23T12:54:01.459Z,51.37
2024-02-23T12:59:03.023Z,52.53
2024-02-23T13:04:10.619Z,52.57
2024-02-23T13:09:14.486Z,52.23
2024-02-23T13:14:17.094Z,52.86
2024-02-23T13:19:18.895Z,52.17
2024-02-23T13:24:20.730Z,52.26
2024-02-23T13:29:23.324Z,53.13
2024-02-23T13:34:24.923Z,53.22
2024-02-23T13:39:26.529Z,53.95
2024-02-23T13:44:30.595Z,54.55
2024-02-23T13:49:36.351Z,53.80
2024-02-23T13:54:38.229Z,53.57
2024-02-23T13:59:39.873Z,54.08
2024-02-23T14:04:41.626Z,54.78
2024-02-23T14:09:46.662Z,55.07
2024-02-23T14:14:49.266Z,56.06
2024-02-23T14:19:52.055Z,56.13
2024-02-23T14:24:55.614Z,55.84
2024-02-23T14:29:58.672Z,54.23
2024-02-23T14:35:02.587Z,55.68
2024-02-23T14:40:04.686Z,56.17
2024-02-23T14:45:07.182Z,56.24
2024-02-23T14:50:09.834Z,55.76
2024-02-23T14:55:12.591Z,55.70
2024-02-23T15:00:14.633Z,56.87
2024-02-23T15:05:16.413Z,56.39
2024-02-23T15:10:18.053Z,55.40
2024-02-23T15:15:19.660Z,55.02
2024-02-23T15:20:21.423Z,54.61
2024-02-23T15:25:23.006Z,54.68
2024-02-23T15:30:25.817Z,54.79
2024-02-23T15:35:29.149Z,53.84
2024-02-23T15:40:30.897Z,54.00
2024-02-23T15:45:32.623Z,55.46
2024-02-23T15:50:50.369Z,54.68
2024-02-23T15:55:55.808Z,55.22
2024-02-23T16:00:57.713Z,55.39
2024-02-23T16:06:00.072Z,56.79
2024-02-23T16:11:01.791Z,57.06
2024-02-23T16:16:03.514Z,57.33
2024-02-23T16:21:05.547Z,56.83
2024-02-23T16:26:07.316Z,56.85
2024-02-23T16:31:08.894Z,55.96
2024-02-23T16:36:18.487Z,55.58
2024-02-23T16:41:20.386Z,55.67
2024-02-23T16:46:22.009Z,55.09
2024-02-23T16:51:23.762Z,54.87
2024-02-23T16:56:28.442Z,54.29
2024-02-23T17:01:30.170Z,54.96
2024-02-23T17:06:31.744Z,55.36
2024-02-23T17:11:33.427Z,56.65
2024-02-23T17:16:35.079Z,56.68
2024-02-23T17:21:36.741Z,57.54
2024-02-23T17:26:38.469Z,57.15
2024-02-23T17:31:40.096Z,57.43
2024-02-23T17:36:43.916Z,56.58
2024-02-23T17:41:47.862Z,56.41
2024-02-23T17:46:49.595Z,56.77
2024-02-23T17:51:53.605Z,56.52
2024-02-23T17:56:56.105Z,56.46
2024-02-23T18:01:57.698Z,57.23
2024-02-23T18:07:00.436Z,56.07
2024-02-23T18:12:02.210Z,55.96
2024-02-23T18:17:05.398Z,55.68
2024-02-23T18:22:06.923Z,56.44
2024-02-23T18:27:08.744Z,56.69
2024-02-23T18:32:13.052Z,55.97
2024-02-23T18:37:14.698Z,56.11
2024-02-23T18:42:18.263Z,56.39
2024-02-23T18:47:19.836Z,56.83
2024-02-23T18:52:22.452Z,56.62
2024-02-23T18:57:23.951Z,56.41
2024-02-23T19:02:25.500Z,56.02
2024-02-23T19:07:27.070Z,55.40
2024-02-23T19:12:29.350Z,55.60
2024-02-23T19:17:36.030Z,56.34
2024-02-23T19:22:38.667Z,56.64
2024-02-23T19:27:40.960Z,56.04
2024-02-23T19:32:42.750Z,57.17
2024-02-23T19:37:52.356Z,56.84
2024-02-23T19:42:55.397Z,55.97
2024-02-23T19:47:57.013Z,55.48
2024-02-23T19:52:58.869Z,55.77
2024-02-23T19:58:03.145Z,56.09
2024-02-23T20:03:04.838Z,55.56
2024-02-23T20:08:07.052Z,55.94
2024-02-23T20:13:08.748Z,56.63
2024-02-23T20:18:10.451Z,56.67
2024-02-23T20:23:13.750Z,57.02
2024-02-23T20:28:15.401Z,56.70
2024-02-23T20:33:16.979Z,57.16
2024-02-23T20:38:18.559Z,57.11
2024-02-23T20:43:20.145Z,57.28
2024-02-23T20:48:21.892Z,57.76
2024-02-23T20:53:23.601Z,56.90
2024-02-23T20:58:25.185Z,56.44
2024-02-23T21:03:28.879Z,56.20
2024-02-23T21:08:30.478Z,55.28
2024-02-23T21:13:32.379Z,55.39
2024-02-23T21:18:37.002Z,55.79
2024-02-23T21:23:38.649Z,55.15
2024-02-23T21:28:40.453Z,55.10
2024-02-23T21:33:43.061Z,55.46
2024-02-23T21:38:45.226Z,55.68
2024-02-23T21:43:46.825Z,55.53
2024-02-23T21:48:49.719Z,55.37
2024-02-23T21:53:54.462Z,55.37
2024-02-23T21:58:55.985Z,55.83
2024-02-23T22:03:58.194Z,55.77
2024-02-23T22:09:00.119Z,56.00
2024-02-23T22:14:01.742Z,55.67
2024-02-23T22:19:04.172Z,55.74
2024-02-23T22:24:05.847Z,56.06
2024-02-23T22:29:07.406Z,55.63
2024-02-23T22:34:09.036Z,55.69
2024-02-23T22:39:11.018Z,55.92
2024-02-23T22:44:13.897Z,56.39
2024-02-23T22:49:15.843Z,56.33
2024-02-23T22:54:17.547Z,56.82
2024-02-23T22:59:19.417Z,57.20
2024-02-23T23:04:21.078Z,56.83
2024-02-23T23:09:22.648Z,57.14
2024-02-23T23:14:24.366Z,57.29
2024-02-23T23:19:26.619Z,56.60
2024-02-23T23:24:29.251Z,56.76
2024-02-23T23:29:30.891Z,56.18
2024-02-23T23:34:32.713Z,56.53
2024-02-23T23:39:34.500Z,56.39
2024-02-23T23:44:36.202Z,56.46
2024-02-23T23:49:38.780Z,56.37
2024-02-23T23:54:43.059Z,56.44
2024-02-23T23:59:44.679Z,56.77
